Time;durP1;ratioP1;P1;durP2;ratioP2;P2;SDS_P1;SDS_P2;PMS_P1;PMS_P2;Temp;Humidity;BMP_temperature;BMP_pressure;BME280_temperature;BME280_humidity;BME280_pressure;Samples;Min_cycle;Max_cycle;Signal;HPM_P1;HPM_P2
2023/03/04 00:01:55;;;;;;;;;;;;;;;20.87;35.28;102795.09;7251665;19;153239;-55
2023/03/04 00:04:22;;;;;;;;;;;;;;;20.89;35.65;102803.25;7254553;19;153032;-54
2023/03/04 00:06:49;;;;;;;;;;;;;;;20.90;35.19;102799.31;7255648;19;154222;-54
2023/03/04 00:09:16;;;;;;;;;;;;;;;20.92;35.42;102797.94;7257935;19;153417;-54
2023/03/04 00:11:43;;;;;;;;;;;;;;;20.95;35.49;102800.22;7254912;19;152903;-54
2023/03/04 00:14:10;;;;;;;;;;;;;;;20.98;35.14;102801.66;7256638;19;154275;-55
2023/03/04 00:16:37;;;;;;;;;;;;;;;21.00;35.10;102800.25;7250311;19;153235;-55
2023/03/04 00:19:04;;;;;;;;;;;;;;;21.02;35.22;102802.81;7267723;19;154203;-55
2023/03/04 00:21:31;;;;;;;;;;;;;;;21.03;35.30;102794.09;7254219;19;154049;-55
2023/03/04 00:23:58;;;;;;;;;;;;;;;21.05;35.36;102791.88;7202219;19;157646;-54
2023/03/04 00:26:24;;;;;;;;;;;;;;;21.06;35.03;102792.72;7246681;19;155108;-54
2023/03/04 00:28:51;;;;;;;;;;;;;;;21.07;34.95;102798.09;7253252;19;153714;-54
2023/03/04 00:31:18;;;;;;;;;;;;;;;21.09;35.25;102798.66;7252407;19;153626;-54
2023/03/04 00:33:45;;;;;;;;;;;;;;;21.10;35.09;102794.75;7252143;19;154470;-54
2023/03/04 00:36:12;;;;;;;;;;;;;;;21.10;34.67;102788.28;7253245;19;152701;-53
2023/03/04 00:38:39;;;;;;;;;;;;;;;21.11;34.74;102784.34;7260664;19;153726;-53
2023/03/04 00:41:06;;;;;;;;;;;;;;;21.11;34.90;102792.78;7251026;19;153682;-53
2023/03/04 00:43:33;;;;;;;;;;;;;;;21.08;35.10;102791.34;7251474;19;153662;-54
2023/03/04 00:46:00;;;;;;;;;;;;;;;21.11;34.91;102784.34;7249058;19;153697;-54
2023/03/04 00:48:27;;;;;;;;;;;;;;;21.10;34.98;102793.91;7197262;19;155215;-54
2023/03/04 00:50:54;;;;;;;;;;;;;;;21.08;35.10;102784.88;7244602;19;153641;-54
2023/03/04 00:53:22;;;;;;;;;;;;;;;21.08;35.00;102782.06;7252124;19;152535;-54
2023/03/04 00:55:53;;;;;;;;;;;;;;;21.02;35.13;102781.19;7247231;19;153812;-53
2023/03/04 00:58:20;;;;;;;;;;;;;;;21.01;35.58;102779.47;7253764;19;153649;-54
2023/03/04 01:00:46;;;;;;;;;;;;;;;20.99;35.67;102783.66;7255671;19;154621;-54
2023/03/04 01:03:13;;;;;;;;;;;;;;;20.98;35.75;102782.00;7252949;19;153603;-53
2023/03/04 01:05:40;;;;;;;;;;;;;;;20.96;35.68;102789.81;7252897;19;154307;-54
2023/03/04 01:08:07;;;;;;;;;;;;;;;20.96;35.45;102776.63;7247671;19;152450;-53
2023/03/04 01:10:34;;;;;;;;;;;;;;;20.94;35.70;102780.81;7252912;19;154001;-53
2023/03/04 01:13:01;;;;;;;;;;;;;;;20.95;35.55;102779.69;7254701;19;153690;-53
2023/03/04 01:15:28;;;;;;;;;;;;;;;20.93;35.81;102779.97;7194027;19;155777;-53
2023/03/04 01:17:55;;;;;;;;;;;;;;;20.88;35.78;102777.13;7251900;19;153766;-53
2023/03/04 01:20:22;;;;;;;;;;;;;;;20.84;35.82;102774.00;7252536;19;153316;-53
2023/03/04 01:22:49;;;;;;;;;;;;;;;20.83;36.11;102782.69;7256345;19;155800;-54
2023/03/04 01:25:16;;;;;;;;;;;;;;;20.80;36.25;102781.22;7250395;19;153672;-53
2023/03/04 01:27:43;;;;;;;;;;;;;;;20.76;36.06;102785.69;7248071;19;154780;-53
2023/03/04 01:30:11;;;;;;;;;;;;;;;20.74;36.24;102787.94;7248366;19;153339;-53
2023/03/04 01:32:38;;;;;;;;;;;;;;;20.71;36.46;102785.66;7252575;19;153013;-54
2023/03/04 01:35:06;;;;;;;;;;;;;;;20.69;36.40;102787.88;7252155;19;154986;-53
2023/03/04 01:37:33;;;;;;;;;;;;;;;20.67;36.49;102784.47;7248203;19;153677;-54
2023/03/04 01:40:00;;;;;;;;;;;;;;;20.66;37.00;102781.94;7233000;19;153691;-54
2023/03/04 01:42:29;;;;;;;;;;;;;;;20.63;37.10;102780.50;7225280;19;153512;-53
2023/03/04 01:44:56;;;;;;;;;;;;;;;20.58;37.06;102772.00;7252256;19;153796;-55
2023/03/04 01:47:25;;;;;;;;;;;;;;;20.57;37.14;102773.16;7248390;19;156811;-54
2023/03/04 01:49:53;;;;;;;;;;;;;;;20.54;37.01;102765.22;7251428;19;153313;-55
2023/03/04 01:52:20;;;;;;;;;;;;;;;20.54;37.02;102770.00;7247737;19;153907;-54
2023/03/04 01:54:47;;;;;;;;;;;;;;;20.51;37.33;102768.59;7251343;19;153524;-54
2023/03/04 01:57:16;;;;;;;;;;;;;;;20.49;37.02;102773.59;7250654;19;154272;-55
2023/03/04 01:59:43;;;;;;;;;;;;;;;20.46;37.41;102768.53;7249155;19;154525;-54
2023/03/04 02:02:10;;;;;;;;;;;;;;;20.43;37.28;102763.44;7246565;19;152393;-54
2023/03/04 02:04:38;;;;;;;;;;;;;;;20.42;37.17;102761.75;7251983;19;153370;-55
2023/03/04 02:07:05;;;;;;;;;;;;;;;20.38;37.41;102757.78;7197482;19;157344;-54
2023/03/04 02:09:33;;;;;;;;;;;;;;;20.37;37.63;102751.31;7249568;19;152481;-54
2023/03/04 02:12:00;;;;;;;;;;;;;;;20.36;37.79;102749.59;7249958;19;155752;-55
2023/03/04 02:14:27;;;;;;;;;;;;;;;20.35;37.70;102750.72;7247696;19;156875;-54
2023/03/04 02:16:54;;;;;;;;;;;;;;;20.33;37.65;102746.47;7249463;19;152846;-54
2023/03/04 02:19:23;;;;;;;;;;;;;;;20.30;37.75;102738.59;7252003;19;153776;-55
2023/03/04 02:21:50;;;;;;;;;;;;;;;20.28;37.60;102746.38;7248001;19;155262;-54
2023/03/04 02:24:21;;;;;;;;;;;;;;;20.24;37.75;102743.25;7252925;19;154618;-54
2023/03/04 02:26:48;;;;;;;;;;;;;;;20.22;37.59;102748.28;7252460;19;153896;-54
2023/03/04 02:29:15;;;;;;;;;;;;;;;20.20;37.90;102739.28;7255035;19;154054;-55
2023/03/04 02:31:45;;;;;;;;;;;;;;;20.17;37.62;102727.75;7187908;19;155552;-54
2023/03/04 02:34:15;;;;;;;;;;;;;;;20.15;38.10;102741.19;7242227;19;155452;-54
2023/03/04 02:36:42;;;;;;;;;;;;;;;20.13;37.87;102732.16;7251185;19;153996;-55
2023/03/04 02:39:13;;;;;;;;;;;;;;;20.09;38.08;102728.19;7247608;19;152305;-54
2023/03/04 02:41:40;;;;;;;;;;;;;;;20.07;37.70;102731.28;7256324;19;155042;-54
2023/03/04 02:44:13;;;;;;;;;;;;;;;20.05;38.08;102724.22;7254980;19;153105;-54
2023/03/04 02:46:40;;;;;;;;;;;;;;;20.04;38.13;102733.72;7252333;19;152548;-54
2023/03/04 02:49:07;;;;;;;;;;;;;;;20.02;37.69;102727.56;7262705;19;155913;-54
2023/03/04 02:51:34;;;;;;;;;;;;;;;20.00;37.77;102725.00;7257746;19;153840;-55
2023/03/04 02:54:01;;;;;;;;;;;;;;;19.98;38.17;102719.66;7255510;19;153714;-54
2023/03/04 02:56:28;;;;;;;;;;;;;;;19.95;37.83;102714.56;7256157;19;153841;-55
2023/03/04 02:58:55;;;;;;;;;;;;;;;19.94;37.99;102712.84;7194129;19;158977;-55
2023/03/04 03:01:26;;;;;;;;;;;;;;;19.93;38.24;102715.94;7252473;19;153864;-55
2023/03/04 03:03:53;;;;;;;;;;;;;;;19.91;37.98;102707.78;7253338;19;153330;-55
2023/03/04 03:06:21;;;;;;;;;;;;;;;19.91;37.97;102716.19;7256271;19;155068;-55
2023/03/04 03:08:48;;;;;;;;;;;;;;;19.88;38.10;102713.91;7250068;19;154264;-55
2023/03/04 03:11:15;;;;;;;;;;;;;;;19.87;37.99;102708.56;7263531;19;154032;-56
2023/03/04 03:13:42;;;;;;;;;;;;;;;19.86;38.39;102710.50;7254492;19;153569;-55
2023/03/04 03:16:09;;;;;;;;;;;;;;;19.84;38.04;102707.13;7256199;19;153251;-55
2023/03/04 03:18:36;;;;;;;;;;;;;;;19.83;38.18;102705.44;7266579;19;154649;-55
2023/03/04 03:21:03;;;;;;;;;;;;;;;19.81;38.49;102701.19;7262522;19;153452;-55
2023/03/04 03:23:30;;;;;;;;;;;;;;;19.78;38.21;102701.72;7260449;19;152954;-54
2023/03/04 03:25:57;;;;;;;;;;;;;;;19.77;38.17;102700.84;7259334;19;153735;-55
2023/03/04 03:28:24;;;;;;;;;;;;;;;19.75;38.52;102699.44;7255663;19;153342;-54
2023/03/04 03:30:51;;;;;;;;;;;;;;;19.74;38.63;102701.41;7249687;19;154110;-54
2023/03/04 03:33:18;;;;;;;;;;;;;;;19.73;38.61;102696.88;7260357;19;154937;-54
2023/03/04 03:35:45;;;;;;;;;;;;;;;19.70;38.67;102705.81;7256910;19;152685;-54
2023/03/04 03:38:12;;;;;;;;;;;;;;;19.69;38.52;102706.94;7255878;19;154503;-55
2023/03/04 03:40:39;;;;;;;;;;;;;;;19.67;38.71;102709.13;7253453;19;153717;-54
2023/03/04 03:43:06;;;;;;;;;;;;;;;19.65;38.40;102710.50;7255189;19;153501;-55
2023/03/04 03:45:33;;;;;;;;;;;;;;;19.64;38.48;102706.84;7252770;19;155050;-54
2023/03/04 03:48:00;;;;;;;;;;;;;;;19.62;38.52;102706.28;7254416;19;154888;-54
2023/03/04 03:50:28;;;;;;;;;;;;;;;19.59;38.65;102698.38;7257935;19;153014;-54
2023/03/04 03:52:55;;;;;;;;;;;;;;;19.58;38.47;102698.66;7250110;19;153544;-54
2023/03/04 03:55:22;;;;;;;;;;;;;;;19.58;38.42;102699.47;7262356;19;154984;-54
2023/03/04 03:57:49;;;;;;;;;;;;;;;19.56;38.47;102698.91;7257280;19;154000;-55
2023/03/04 04:00:16;;;;;;;;;;;;;;;19.55;38.89;102705.59;7250553;19;153624;-55
2023/03/04 04:02:43;;;;;;;;;;;;;;;19.53;38.94;102697.44;7255372;19;153441;-54
2023/03/04 04:05:11;;;;;;;;;;;;;;;19.52;38.64;102703.34;7256341;19;156870;-58
2023/03/04 04:07:38;;;;;;;;;;;;;;;19.50;38.92;102694.31;7253504;19;155333;-54
2023/03/04 04:10:05;;;;;;;;;;;;;;;19.50;39.02;102699.94;7256081;19;152067;-54
2023/03/04 04:12:32;;;;;;;;;;;;;;;19.47;39.02;102695.69;7255767;19;154190;-54
2023/03/04 04:14:59;;;;;;;;;;;;;;;19.46;39.05;102694.00;7255275;19;154269;-54
2023/03/04 04:17:26;;;;;;;;;;;;;;;19.45;38.85;102702.66;7260686;19;152281;-54
2023/03/04 04:19:53;;;;;;;;;;;;;;;19.45;38.95;102702.66;7256124;19;154270;-54
2023/03/04 04:22:20;;;;;;;;;;;;;;;19.43;39.17;102702.03;7255066;19;153526;-54
2023/03/04 04:24:47;;;;;;;;;;;;;;;19.42;39.32;102705.94;7254077;19;153099;-54
2023/03/04 04:27:14;;;;;;;;;;;;;;;19.41;39.04;102702.28;7253637;19;153584;-54
2023/03/04 04:29:41;;;;;;;;;;;;;;;19.37;39.29;102700.28;7250327;19;154335;-54
2023/03/04 04:32:08;;;;;;;;;;;;;;;19.37;39.37;102709.53;7253505;19;153210;-54
2023/03/04 04:34:35;;;;;;;;;;;;;;;19.35;39.17;102708.91;7255929;19;153909;-54
2023/03/04 04:37:02;;;;;;;;;;;;;;;19.34;39.27;102712.00;7265220;19;153143;-54
2023/03/04 04:39:29;;;;;;;;;;;;;;;19.32;39.11;102714.19;7254156;19;153341;-55
2023/03/04 04:41:56;;;;;;;;;;;;;;;19.30;39.46;102714.47;7253165;19;154522;-55
2023/03/04 04:44:23;;;;;;;;;;;;;;;19.28;39.15;102721.44;7256599;19;152989;-54
2023/03/04 04:46:50;;;;;;;;;;;;;;;19.29;39.20;102717.53;7255180;19;154226;-54
2023/03/04 04:49:18;;;;;;;;;;;;;;;19.27;39.44;102720.56;7253920;19;154026;-54
2023/03/04 04:51:44;;;;;;;;;;;;;;;19.25;39.24;102720.00;7252824;19;153085;-54
2023/03/04 04:54:12;;;;;;;;;;;;;;;19.25;39.40;102711.59;7258114;19;156555;-54
2023/03/04 04:56:39;;;;;;;;;;;;;;;19.23;39.58;102710.13;7256854;19;153618;-55
2023/03/04 04:59:07;;;;;;;;;;;;;;;19.21;39.81;102718.81;7262594;19;153280;-54
2023/03/04 05:01:34;;;;;;;;;;;;;;;19.21;39.70;102713.22;7253602;19;154463;-54
2023/03/04 05:04:01;;;;;;;;;;;;;;;19.21;39.85;102723.56;7256470;19;153482;-55
2023/03/04 05:06:28;;;;;;;;;;;;;;;19.20;39.73;102721.88;7255840;19;154312;-54
2023/03/04 05:08:55;;;;;;;;;;;;;;;19.18;39.74;102724.06;7255389;19;152871;-54
2023/03/04 05:11:23;;;;;;;;;;;;;;;19.17;39.77;102722.41;7257206;19;154216;-54
2023/03/04 05:13:50;;;;;;;;;;;;;;;19.15;40.13;102727.38;7253753;19;153660;-54
2023/03/04 05:16:18;;;;;;;;;;;;;;;19.15;40.11;102728.25;7253765;19;153326;-53
2023/03/04 05:18:45;;;;;;;;;;;;;;;19.14;39.71;102731.28;7256330;19;153671;-53
2023/03/04 05:21:12;;;;;;;;;;;;;;;19.12;40.04;102734.38;7264174;19;154999;-54
2023/03/04 05:23:40;;;;;;;;;;;;;;;19.11;40.02;102735.47;7253375;19;155345;-53
2023/03/04 05:26:08;;;;;;;;;;;;;;;19.10;40.07;102736.56;7253267;19;154102;-53
2023/03/04 05:28:35;;;;;;;;;;;;;;;19.08;39.90;102742.41;7251750;19;154717;-53
2023/03/04 05:31:02;;;;;;;;;;;;;;;19.07;39.89;102742.69;7251779;19;153043;-54
2023/03/04 05:33:29;;;;;;;;;;;;;;;19.06;40.12;102741.84;7250498;19;154345;-54
2023/03/04 05:35:56;;;;;;;;;;;;;;;19.06;39.70;102739.03;7256025;19;153404;-53
2023/03/04 05:38:24;;;;;;;;;;;;;;;19.05;39.82;102742.06;7253714;19;153539;-53
2023/03/04 05:40:55;;;;;;;;;;;;;;;19.02;40.08;102740.66;7250905;19;152250;-54
2023/03/04 05:43:22;;;;;;;;;;;;;;;19.01;39.94;102744.53;7259725;19;153281;-54
2023/03/04 05:45:49;;;;;;;;;;;;;;;18.99;39.88;102748.69;7250612;19;156171;-54
2023/03/04 05:48:16;;;;;;;;;;;;;;;18.99;40.11;102741.13;7256393;19;154694;-54
2023/03/04 05:50:43;;;;;;;;;;;;;;;18.98;40.38;102747.88;7256230;19;153513;-57
2023/03/04 05:53:09;;;;;;;;;;;;;;;18.95;39.90;102745.56;7248062;19;153622;-54
2023/03/04 05:55:36;;;;;;;;;;;;;;;18.95;40.27;102742.75;7252333;19;153835;-54
2023/03/04 05:58:03;;;;;;;;;;;;;;;18.95;40.00;102739.09;7253266;19;155270;-54
2023/03/04 06:00:30;;;;;;;;;;;;;;;18.93;40.22;102739.38;7250651;19;156270;-54
2023/03/04 06:02:57;;;;;;;;;;;;;;;18.92;40.49;102745.22;7250216;19;152258;-54
2023/03/04 06:05:24;;;;;;;;;;;;;;;18.91;40.37;102752.75;7257505;19;154158;-54
2023/03/04 06:07:51;;;;;;;;;;;;;;;18.91;40.25;102749.97;7249164;19;152173;-54
2023/03/04 06:10:19;;;;;;;;;;;;;;;18.90;40.42;102758.63;7247861;19;153519;-54
2023/03/04 06:12:46;;;;;;;;;;;;;;;18.90;40.14;102753.00;7252471;19;155744;-53
2023/03/04 06:15:13;;;;;;;;;;;;;;;18.89;40.51;102751.34;7253493;19;152766;-53
2023/03/04 06:17:40;;;;;;;;;;;;;;;18.88;40.45;102752.44;7259845;19;154948;-54
2023/03/04 06:20:09;;;;;;;;;;;;;;;18.87;40.36;102745.13;7257324;19;153312;-55
2023/03/04 06:22:36;;;;;;;;;;;;;;;18.86;40.14;102746.22;7259811;19;154051;-54
2023/03/04 06:25:03;;;;;;;;;;;;;;;18.84;40.28;102746.50;7258911;19;154016;-53
2023/03/04 06:27:30;;;;;;;;;;;;;;;18.83;40.28;102733.59;7267149;19;153372;-54
2023/03/04 06:29:57;;;;;;;;;;;;;;;18.81;40.33;102752.59;7255496;19;154420;-54
2023/03/04 06:32:24;;;;;;;;;;;;;;;18.80;40.33;102750.91;7257843;19;154636;-54
2023/03/04 06:34:51;;;;;;;;;;;;;;;18.81;40.44;102749.78;7261159;19;153984;-55
2023/03/04 06:37:18;;;;;;;;;;;;;;;18.80;40.41;102756.50;7256594;19;154187;-54
2023/03/04 06:39:45;;;;;;;;;;;;;;;18.79;40.56;102756.75;7255787;19;154554;-55
2023/03/04 06:42:12;;;;;;;;;;;;;;;18.78;40.29;102755.91;7258130;19;154330;-55
2023/03/04 06:44:39;;;;;;;;;;;;;;;18.78;40.71;102753.09;7256089;19;153798;-54
2023/03/04 06:47:07;;;;;;;;;;;;;;;18.75;40.63;102756.41;7264881;19;153322;-55
2023/03/04 06:49:33;;;;;;;;;;;;;;;18.75;40.60;102759.22;7257712;19;153379;-54
2023/03/04 06:52:00;;;;;;;;;;;;;;;18.75;40.75;102758.34;7254697;19;153762;-54
2023/03/04 06:54:27;;;;;;;;;;;;;;;18.78;40.45;102772.69;7259317;19;154875;-55
2023/03/04 06:56:54;;;;;;;;;;;;;;;18.85;40.29;102762.16;7259250;19;153356;-55
2023/03/04 06:59:21;;;;;;;;;;;;;;;18.91;40.90;102763.13;7254484;19;154086;-55
2023/03/04 07:01:48;;;;;;;;;;;;;;;19.00;41.08;102768.06;7253070;19;154135;-54
2023/03/04 07:04:15;;;;;;;;;;;;;;;19.07;40.87;102765.94;7258855;19;153519;-54
2023/03/04 07:06:42;;;;;;;;;;;;;;;19.15;40.90;102772.22;7257493;19;154475;-55
2023/03/04 07:09:10;;;;;;;;;;;;;;;19.23;40.72;102771.78;7263874;19;154549;-54
2023/03/04 07:11:36;;;;;;;;;;;;;;;19.28;40.92;102775.53;7257388;19;153199;-54
2023/03/04 07:14:03;;;;;;;;;;;;;;;19.34;40.84;102782.94;7258199;19;153902;-55
2023/03/04 07:16:30;;;;;;;;;;;;;;;19.40;41.19;102786.63;7257827;19;153378;-55
2023/03/04 07:18:57;;;;;;;;;;;;;;;19.45;41.34;102786.75;7258796;19;153438;-55
2023/03/04 07:21:24;;;;;;;;;;;;;;;19.50;41.07;102786.84;7261611;19;152640;-54
2023/03/04 07:23:51;;;;;;;;;;;;;;;19.57;40.96;102783.88;7260127;19;154725;-54
2023/03/04 07:26:18;;;;;;;;;;;;;;;19.62;41.22;102787.59;7255001;19;155435;-54
2023/03/04 07:28:46;;;;;;;;;;;;;;;19.68;40.95;102788.50;7255831;19;152586;-54
2023/03/04 07:31:16;;;;;;;;;;;;;;;19.74;40.86;102785.53;7261610;19;153907;-54
2023/03/04 07:33:43;;;;;;;;;;;;;;;19.80;40.70;102784.50;7257876;19;154619;-54
2023/03/04 07:36:13;;;;;;;;;;;;;;;19.86;40.99;102786.25;7257556;19;153314;-54
2023/03/04 07:38:43;;;;;;;;;;;;;;;19.92;40.90;102789.97;7255300;19;153604;-54
2023/03/04 07:41:11;;;;;;;;;;;;;;;19.98;40.87;102794.56;7260067;19;154401;-54
2023/03/04 07:43:38;;;;;;;;;;;;;;;20.04;40.35;102798.25;7257270;19;153724;-54
2023/03/04 07:46:04;;;;;;;;;;;;;;;20.11;40.64;102798.94;7252676;19;153771;-54
2023/03/04 07:48:31;;;;;;;;;;;;;;;20.16;40.28;102794.25;7256198;19;154371;-54
2023/03/04 07:51:02;;;;;;;;;;;;;;;20.21;40.43;102793.47;7255053;19;154305;-54
2023/03/04 07:53:29;;;;;;;;;;;;;;;20.27;40.50;102798.00;7263388;19;153741;-54
2023/03/04 07:55:56;;;;;;;;;;;;;;;20.33;40.69;102797.88;7257144;19;154874;-54
2023/03/04 07:58:22;;;;;;;;;;;;;;;20.38;40.29;102805.50;7254601;19;153771;-54
2023/03/04 08:00:49;;;;;;;;;;;;;;;20.44;40.12;102809.22;7255418;19;152798;-54
2023/03/04 08:03:16;;;;;;;;;;;;;;;20.49;40.23;102810.09;7256593;19;153684;-54
2023/03/04 08:05:43;;;;;;;;;;;;;;;20.54;40.16;102806.50;7257092;19;153799;-54
2023/03/04 08:08:10;;;;;;;;;;;;;;;20.60;40.21;102811.94;7255294;19;152975;-54
2023/03/04 08:10:38;;;;;;;;;;;;;;;20.65;40.30;102809.19;7252925;19;155668;-54
2023/03/04 08:13:06;;;;;;;;;;;;;;;20.71;40.19;102813.75;7255053;19;155426;-54
2023/03/04 08:15:34;;;;;;;;;;;;;;;20.75;40.11;102809.31;7261186;19;152963;-54
2023/03/04 08:18:01;;;;;;;;;;;;;;;20.81;39.92;102808.22;7251928;19;154212;-55
2023/03/04 08:20:27;;;;;;;;;;;;;;;20.84;39.83;102813.34;7256864;19;152876;-55
2023/03/04 08:22:54;;;;;;;;;;;;;;;20.89;40.00;102820.13;7252800;19;154550;-55
2023/03/04 08:25:21;;;;;;;;;;;;;;;20.92;39.63;102811.13;7253272;19;154049;-55
2023/03/04 08:27:48;;;;;;;;;;;;;;;20.97;39.18;102814.00;7255592;19;152189;-54
2023/03/04 08:30:17;;;;;;;;;;;;;;;20.99;39.28;102808.94;7253630;19;153508;-55
2023/03/04 08:32:48;;;;;;;;;;;;;;;21.01;39.17;102807.59;7250693;19;153774;-55
2023/03/04 08:35:16;;;;;;;;;;;;;;;21.05;38.97;102807.91;7255510;19;152681;-54
2023/03/04 08:37:43;;;;;;;;;;;;;;;21.07;38.54;102805.69;7261127;19;154059;-54
2023/03/04 08:40:11;;;;;;;;;;;;;;;21.09;38.51;102809.91;7254569;19;153984;-55
2023/03/04 08:42:38;;;;;;;;;;;;;;;21.11;38.76;102820.91;7252114;19;152707;-55
2023/03/04 08:45:05;;;;;;;;;;;;;;;21.13;38.68;102816.72;7253450;19;154240;-55
2023/03/04 08:47:32;;;;;;;;;;;;;;;21.15;38.32;102808.03;7255708;19;154423;-55
2023/03/04 08:49:59;;;;;;;;;;;;;;;21.17;38.65;102817.03;7256101;19;153418;-55
2023/03/04 08:52:27;;;;;;;;;;;;;;;21.18;38.15;102813.09;7252891;19;153468;-55
2023/03/04 08:54:54;;;;;;;;;;;;;;;21.20;38.23;102808.06;7255943;19;153060;-55
2023/03/04 08:57:22;;;;;;;;;;;;;;;21.20;38.15;102810.88;7260791;19;152737;-54
2023/03/04 08:59:49;;;;;;;;;;;;;;;21.22;38.31;102808.63;7256359;19;154081;-54
2023/03/04 09:02:15;;;;;;;;;;;;;;;21.24;38.32;102814.84;7253307;19;154495;-55
2023/03/04 09:04:42;;;;;;;;;;;;;;;21.24;38.64;102806.44;7254773;19;152999;-55
2023/03/04 09:07:10;;;;;;;;;;;;;;;21.26;38.28;102806.97;7257207;19;153064;-54
2023/03/04 09:09:37;;;;;;;;;;;;;;;21.26;38.79;102807.84;7256284;19;153517;-55
2023/03/04 09:12:04;;;;;;;;;;;;;;;21.24;38.77;102798.84;7252035;19;153897;-55
2023/03/04 09:14:32;;;;;;;;;;;;;;;21.21;38.67;102802.16;7258009;19;154610;-55
2023/03/04 09:16:59;;;;;;;;;;;;;;;21.19;38.63;102807.22;7253700;19;154367;-54
2023/03/04 09:19:27;;;;;;;;;;;;;;;21.17;38.42;102801.00;7263317;19;154142;-54
2023/03/04 09:21:55;;;;;;;;;;;;;;;21.21;37.04;102804.97;7255069;19;153298;-54
2023/03/04 09:24:22;;;;;;;;;;;;;;;21.18;36.68;102801.88;7251199;19;155474;-54
2023/03/04 09:26:50;;;;;;;;;;;;;;;21.19;36.82;102806.38;7253753;19;152926;-54
2023/03/04 09:29:17;;;;;;;;;;;;;;;21.16;36.52;102802.16;7253520;19;154081;-54
2023/03/04 09:31:44;;;;;;;;;;;;;;;21.16;36.43;102802.16;7247178;19;153833;-54
2023/03/04 09:34:11;;;;;;;;;;;;;;;21.16;36.87;102801.31;7254111;19;153610;-55
2023/03/04 09:36:38;;;;;;;;;;;;;;;21.20;36.83;102808.06;7250464;19;154373;-54
2023/03/04 09:39:05;;;;;;;;;;;;;;;21.24;36.50;102809.22;7248563;19;152926;-54
2023/03/04 09:41:35;;;;;;;;;;;;;;;21.22;37.09;102809.50;7258569;19;153741;-55
2023/03/04 09:44:06;;;;;;;;;;;;;;;21.27;36.81;102817.13;7248679;19;153671;-55
2023/03/04 09:46:37;;;;;;;;;;;;;;;21.30;37.44;102814.63;7248027;19;152486;-55
2023/03/04 09:49:04;;;;;;;;;;;;;;;21.36;36.86;102804.25;7252959;19;153528;-54
2023/03/04 09:51:34;;;;;;;;;;;;;;;21.43;37.09;102810.53;7257714;19;154955;-54
2023/03/04 09:54:06;;;;;;;;;;;;;;;21.47;36.98;102805.19;7259378;19;154664;-54
2023/03/04 09:56:36;;;;;;;;;;;;;;;21.49;36.50;102803.81;7259947;19;153035;-54
2023/03/04 09:59:05;;;;;;;;;;;;;;;21.52;36.85;102808.91;7258361;19;154659;-55
2023/03/04 10:01:39;;;;;;;;;;;;;;;21.55;36.36;102802.72;7260080;19;151859;-54
2023/03/04 10:04:12;;;;;;;;;;;;;;;21.59;36.12;102801.06;7265871;19;154322;-54
2023/03/04 10:06:41;;;;;;;;;;;;;;;21.62;36.63;102800.50;7258258;19;154120;-53
2023/03/04 10:09:13;;;;;;;;;;;;;;;21.68;36.52;102812.66;7260804;19;153179;-54
2023/03/04 10:11:41;;;;;;;;;;;;;;;21.71;36.21;102806.50;7257848;19;154782;-54
2023/03/04 10:14:11;;;;;;;;;;;;;;;21.75;36.32;102807.66;7257782;19;153849;-54
2023/03/04 10:16:41;;;;;;;;;;;;;;;21.78;36.07;102804.28;7263158;19;153259;-54
2023/03/04 10:19:21;;;;;;;;;;;;;;;21.79;36.17;102807.97;7263032;19;154376;-54
2023/03/04 10:21:49;;;;;;;;;;;;;;;21.82;36.00;102798.97;7262884;19;154240;-54
2023/03/04 10:24:17;;;;;;;;;;;;;;;21.85;36.08;102804.06;7264485;19;152545;-54
2023/03/04 10:26:46;;;;;;;;;;;;;;;21.86;35.92;102800.09;7270583;19;153295;-54
2023/03/04 10:29:15;;;;;;;;;;;;;;;21.86;35.74;102794.47;7260810;19;153678;-54
2023/03/04 10:31:43;;;;;;;;;;;;;;;21.84;35.63;102802.38;7255875;19;155789;-55
2023/03/04 10:34:13;;;;;;;;;;;;;;;21.79;35.38;102796.69;7259494;19;152748;-54
2023/03/04 10:36:41;;;;;;;;;;;;;;;21.76;35.63;102798.06;7261191;19;153328;-55
2023/03/04 10:39:11;;;;;;;;;;;;;;;21.73;35.50;102793.84;7260270;19;154444;-55
2023/03/04 10:41:41;;;;;;;;;;;;;;;21.71;35.63;102796.06;7256682;19;153454;-54
2023/03/04 10:44:09;;;;;;;;;;;;;;;21.68;35.70;102795.78;7263044;19;153074;-54
2023/03/04 10:46:37;;;;;;;;;;;;;;;21.65;35.46;102785.94;7257919;19;153829;-55
2023/03/04 10:49:04;;;;;;;;;;;;;;;21.63;35.64;102787.31;7269851;19;153279;-54
2023/03/04 10:51:40;;;;;;;;;;;;;;;21.60;35.83;102788.72;7259821;19;153870;-54
2023/03/04 10:54:16;;;;;;;;;;;;;;;21.57;35.75;102783.63;7263331;19;153441;-54
2023/03/04 10:56:52;;;;;;;;;;;;;;;21.59;35.47;102786.16;7259220;19;152972;-54
2023/03/04 10:59:22;;;;;;;;;;;;;;;21.60;35.45;102780.28;7260497;19;154286;-54
2023/03/04 11:01:50;;;;;;;;;;;;;;;21.65;35.78;102782.25;7259001;19;153413;-54
2023/03/04 11:04:17;;;;;;;;;;;;;;;21.65;35.33;102774.69;7257349;19;154406;-53
2023/03/04 11:06:45;;;;;;;;;;;;;;;21.67;35.35;102775.22;7258538;19;154085;-54
2023/03/04 11:09:15;;;;;;;;;;;;;;;21.70;35.70;102773.88;7267961;19;153586;-54
2023/03/04 11:11:44;;;;;;;;;;;;;;;21.74;35.30;102769.38;7256712;19;154684;-54
2023/03/04 11:14:15;;;;;;;;;;;;;;;21.79;35.58;102762.94;7265162;19;153465;-54
2023/03/04 11:16:50;;;;;;;;;;;;;;;21.83;35.11;102761.25;7263531;19;153257;-54
2023/03/04 11:19:19;;;;;;;;;;;;;;;21.85;35.24;102767.47;7261612;19;154923;-54
2023/03/04 11:21:48;;;;;;;;;;;;;;;21.86;35.48;102764.38;7259649;19;153399;-54
2023/03/04 11:24:20;;;;;;;;;;;;;;;21.86;35.24;102764.38;7263153;19;153032;-54
2023/03/04 11:26:59;;;;;;;;;;;;;;;21.87;34.93;102759.59;7260846;19;156248;-54
2023/03/04 11:29:30;;;;;;;;;;;;;;;21.87;34.89;102759.59;7261652;19;154730;-54
2023/03/04 11:32:02;;;;;;;;;;;;;;;21.87;35.17;102753.97;7260246;19;154570;-55
2023/03/04 11:34:36;;;;;;;;;;;;;;;21.88;35.00;102759.34;7261581;19;153181;-55
2023/03/04 11:37:07;;;;;;;;;;;;;;;21.92;35.51;102754.00;7257412;19;154421;-54
2023/03/04 11:39:37;;;;;;;;;;;;;;;21.89;35.31;102748.94;7257375;19;153291;-54
2023/03/04 11:42:10;;;;;;;;;;;;;;;21.78;34.70;102755.59;7258521;19;152966;-55
2023/03/04 11:44:40;;;;;;;;;;;;;;;21.55;32.53;102752.09;7260307;19;152631;-54
2023/03/04 11:47:08;;;;;;;;;;;;;;;21.61;33.21;102756.66;7253745;19;152971;-54
2023/03/04 11:49:35;;;;;;;;;;;;;;;21.63;33.74;102748.78;7260865;19;154494;-54
2023/03/04 11:52:09;;;;;;;;;;;;;;;21.63;33.98;102757.22;7257358;19;153593;-54
2023/03/04 11:54:36;;;;;;;;;;;;;;;21.68;34.05;102751.63;7264874;19;154020;-54
2023/03/04 11:57:05;;;;;;;;;;;;;;;21.66;33.81;102747.41;7256124;19;155314;-53
2023/03/04 11:59:35;;;;;;;;;;;;;;;21.70;34.02;102751.34;7257417;19;154544;-54
2023/03/04 12:02:05;;;;;;;;;;;;;;;21.61;35.30;102751.03;7257692;19;153766;-55
2023/03/04 12:04:35;;;;;;;;;;;;;;;21.66;34.75;102739.81;7259097;19;154569;-54
2023/03/04 12:07:05;;;;;;;;;;;;;;;21.70;34.58;102731.66;7260166;19;154397;-54
2023/03/04 12:09:36;;;;;;;;;;;;;;;21.71;34.51;102739.81;7259702;19;153985;-54
2023/03/04 12:12:06;;;;;;;;;;;;;;;21.70;34.68;102726.88;7252290;19;156590;-54
2023/03/04 12:14:36;;;;;;;;;;;;;;;21.73;34.62;102728.28;7256574;19;153766;-54
2023/03/04 12:17:06;;;;;;;;;;;;;;;21.69;35.12;102729.97;7260725;19;153787;-55
2023/03/04 12:19:41;;;;;;;;;;;;;;;21.65;34.47;102718.41;7253090;19;156522;-54
2023/03/04 12:22:12;;;;;;;;;;;;;;;21.61;34.69;102722.91;7255346;19;154158;-54
2023/03/04 12:24:40;;;;;;;;;;;;;;;21.54;34.63;102716.66;7257768;19;152308;-54
2023/03/04 12:27:08;;;;;;;;;;;;;;;21.50;34.77;102711.84;7252840;19;154405;-54
2023/03/04 12:29:44;;;;;;;;;;;;;;;21.47;34.42;102710.44;7256455;19;153770;-55
2023/03/04 12:32:15;;;;;;;;;;;;;;;21.42;34.85;102712.34;7252290;19;153862;-55